• Join FlightAware (Why Join?)
  • Login
  • US Flag 
10:56AM EST


 

Airport Tracker/Info


-or-


 

Live Flight TrackerFlight Track Log ✈ N53451 ✈ 12-May-2014 ✈ KPIE - KPIE

Flight Track Log - Related Links

Times and Time Zones

All times are in EDT time to prevent confusion due to time zone crossing. See the N53451 flight status page for this flight to view local times or setup timezone preferences in your user account.

Time Position Orientation Groundspeed Altitude Reporting Facility
EDT Latitude Longitude Course Direction KTS MPH feet Rate Location/Type
12:46PM 27.9000 -82.6833 360° North 79 91 400  Level Tampa TRACON
12:47PM 27.9000 -82.6833 270° West 75 86 600 420 Climbing Tampa TRACON
12:48PM 27.8833 -82.7167 241° Southwest 91 105 1,100 480 Climbing Tampa TRACON
12:49PM 27.8833 -82.7333 270° West 96 110 1,600 480 Climbing Tampa TRACON
12:50PM 27.8833 -82.7667 270° West 95 109 2,100 540 Climbing Tampa TRACON
12:51PM 27.9167 -82.7833 336° Northwest 91 105 2,700 480 Climbing Tampa TRACON
12:52PM 27.9333 -82.7833 360° North 94 108 3,100 360 Climbing Tampa TRACON
12:53PM 27.9667 -82.8000 336° Northwest 84 97 3,500 420 Climbing Tampa TRACON
12:54PM 27.9833 -82.8000 360° North 97 112 4,000 240 Climbing Tampa TRACON
12:55PM 28.0167 -82.8167 336° Northwest 98 113 4,100  Climbing Tampa TRACON
12:56PM 28.0333 -82.8333 319° Northwest 106 122 4,100  Level Tampa TRACON
12:57PM 28.0500 -82.8000 60° Northeast 91 105 4,100  Level Tampa TRACON
12:58PM 28.0833 -82.8000 360° North 91 105 4,100  Level Tampa TRACON
12:59PM 28.1000 -82.8000 360° North 95 109 4,100  Level Tampa TRACON
01:00PM 28.1333 -82.8000 360° North 107 123 4,200  Climbing Tampa TRACON
01:01PM 28.1667 -82.7833 24° Northeast 102 117 4,100 -60 Descending Tampa TRACON
01:02PM 28.1833 -82.7833 360° North 102 117 4,100  Level Tampa TRACON
01:03PM 28.2167 -82.7833 360° North 103 119 4,100  Level Tampa TRACON
01:04PM 28.2500 -82.7833 360° North 97 112 4,100  Level Tampa TRACON
01:05PM 28.2833 -82.7667 24° Northeast 103 119 4,100 -120 Level Tampa TRACON
01:06PM 28.3000 -82.7667 360° North 94 108 3,900 -60 Descending Tampa TRACON
01:07PM 28.3167 -82.7500 41° Northeast 91 105 4,000 120 Climbing Tampa TRACON
01:08PM 28.3500 -82.7333 24° Northeast 91 105 4,200  Climbing Tampa TRACON
01:09PM 28.3833 -82.7333 360° North 97 112 4,100 -60 Descending Tampa TRACON
01:10PM 28.4000 -82.7333 360° North 102 117 4,100  Level Tampa TRACON
01:11PM 28.4333 -82.7167 24° Northeast 102 117 4,200 -60 Climbing Tampa TRACON
01:12PM 28.4500 -82.7167 360° North 100 115 4,000 -60 Descending Tampa TRACON
01:13PM 28.4833 -82.7000 24° Northeast 96 110 4,100  Climbing Tampa TRACON
01:14PM 28.5167 -82.7000 360° North 98 113 4,100  Level Tampa TRACON
01:15PM 28.5333 -82.6833 41° Northeast 98 113 4,100  Level Tampa TRACON
01:16PM 28.5500 -82.6667 41° Northeast 97 112 4,100  Level Tampa TRACON
01:17PM 28.5833 -82.6667 360° North 96 110 4,100 -60 Level Tampa TRACON
01:18PM 28.6167 -82.6500 24° Northeast 98 113 4,000  Descending Tampa TRACON
01:19PM 28.6333 -82.6500 360° North 101 116 4,100  Climbing Tampa TRACON
01:20PM 28.6500 -82.6333 41° Northeast 91 105 4,000  Descending Tampa TRACON
01:21PM 28.6833 -82.6333 360° North 92 106 4,100  Climbing Tampa TRACON
01:22PM 28.7000 -82.6167 41° Northeast 89 102 4,100  Level Tampa TRACON
01:23PM 28.7333 -82.6000 24° Northeast 98 113 4,200  Climbing Tampa TRACON
01:23PM 28.7403 -82.6061 322° Northwest 98 113 4,100 -240 Descending Jacksonville Center
01:24PM 28.7547 -82.6014 16° North 102 117 4,000 60 Descending Jacksonville Center
01:25PM 28.7839 -82.5942 12° North 98 113 4,200 -60 Climbing Jacksonville Center
01:26PM 28.8111 -82.5892 North 104 120 3,900 -540 Descending Jacksonville Center
01:27PM 28.8425 -82.5725 25° Northeast 110 127 3,100 -600 Descending Jacksonville Center
01:28PM 28.8464 -82.5514 78° East 118 136 2,800 -180 Descending Jacksonville Center
01:29PM 28.8464 -82.5489 90° East 118 136 2,800 -120 Level Jacksonville Center
01:37PM 28.9069 -82.5511 358° North 66 76 2,000 -60 Descending Jacksonville Center
01:38PM 28.9175 -82.5581 330° Northwest 78 90 2,500 540 Climbing Jacksonville Center
01:39PM 28.9300 -82.5722 315° West 91 105 2,900 480 Climbing Jacksonville Center
01:40PM 28.9031 -82.5772 189° South 93 107 3,500 540 Climbing Jacksonville Center
01:41PM 28.8819 -82.5772 180° South 74 85 4,000 480 Climbing Jacksonville Center
01:42PM 28.8611 -82.5750 175° South 78 90 4,500 420 Climbing Jacksonville Center
01:43PM 28.8383 -82.5772 185° South 77 89 5,000 300 Climbing Jacksonville Center
01:44PM 28.8131 -82.5775 181° South 81 93 5,200  Climbing Jacksonville Center
01:45PM 28.7861 -82.5775 180° South 105 121 5,100 -60 Descending Jacksonville Center
01:46PM 28.7569 -82.5847 192° South 101 116 5,100 -60 Level Jacksonville Center
01:47PM 28.7317 -82.5872 185° South 97 112 5,000  Descending Jacksonville Center
01:49PM 28.7000 -82.6000 199° South 91 105 5,100  Climbing Tampa TRACON
01:50PM 28.6667 -82.6000 180° South 91 105 5,100 -60 Level Tampa TRACON
01:51PM 28.6333 -82.6000 180° South 101 116 5,000 -360 Descending Tampa TRACON
01:52PM 28.6167 -82.6167 221° Southwest 102 117 4,400 -540 Descending Tampa TRACON
01:53PM 28.5833 -82.6333 204° Southwest 107 123 4,000 -420 Descending Tampa TRACON
01:54PM 28.5667 -82.6500 221° Southwest 110 127 3,700 -420 Descending Tampa TRACON
01:55PM 28.5333 -82.6667 204° Southwest 110 127 3,200 -360 Descending Tampa TRACON
01:56PM 28.5167 -82.6833 221° Southwest 99 114 3,000 -120 Descending Tampa TRACON
01:57PM 28.4833 -82.6833 180° South 87 100 3,000  Level Tampa TRACON
01:58PM 28.4667 -82.7000 221° Southwest 92 106 3,100  Climbing Tampa TRACON
01:59PM 28.4333 -82.7167 204° Southwest 93 107 3,100 -60 Level Tampa TRACON
02:00PM 28.4167 -82.7167 180° South 98 113 3,000  Descending Tampa TRACON
02:01PM 28.3833 -82.7167 180° South 104 120 3,200  Climbing Tampa TRACON
02:02PM 28.3667 -82.7167 180° South 104 120 3,100 -60 Descending Tampa TRACON
02:03PM 28.3333 -82.7167 180° South 94 108 3,100 -60 Level Tampa TRACON
02:04PM 28.3000 -82.7167 180° South 99 114 3,000 -60 Descending Tampa TRACON
02:05PM 28.2833 -82.7333 221° Southwest 99 114 3,000  Level Tampa TRACON
02:06PM 28.2667 -82.7500 221° Southwest 99 114 3,100  Climbing Tampa TRACON
02:07PM 28.2333 -82.7500 180° South 95 109 3,100 -60 Level Tampa TRACON
02:08PM 28.2000 -82.7667 204° Southwest 107 123 3,000  Descending Tampa TRACON
02:09PM 28.1833 -82.7833 221° Southwest 98 113 3,100  Climbing Tampa TRACON
02:10PM 28.1667 -82.7667 139° Southeast 84 97 3,000 -60 Descending Tampa TRACON
02:11PM 28.1500 -82.7500 139° Southeast 84 97 3,000 -180 Level Tampa TRACON
02:12PM 28.1333 -82.7333 139° Southeast 89 102 2,700 -360 Descending Tampa TRACON
02:13PM 28.1000 -82.7167 156° South 97 112 2,300 -540 Descending Tampa TRACON
02:14PM 28.0833 -82.7167 180° South 113 130 1,700 -420 Descending Tampa TRACON
02:15PM 28.0500 -82.7167 180° South 96 110 1,600 -120 Descending Tampa TRACON
02:16PM 28.0333 -82.7000 139° Southeast 89 102 1,500  Descending Tampa TRACON
02:17PM 28.0000 -82.7000 180° South 84 97 1,700 -120 Climbing Tampa TRACON
02:18PM 27.9833 -82.7000 180° South 81 93 1,300 -420 Descending Tampa TRACON
02:19PM 27.9500 -82.7000 180° South 77 89 900 -420 Descending Tampa TRACON
02:20PM 27.9333 -82.7000 180° South 78 90 500 -420 Descending Tampa TRACON